Eye Of The Wind — GWAK — position and weather

sailwx.info

Track history (hours):
 
Tides and Currents Weather Stations Pressure Air Temp Water Temp Dewpoint Dewpoint Depression Visibility Wind Speed Wind Dir Waves Ship Positions

Eye Of The Wind

Last reported at 2017-Aug-16 16:27 UTC. Time now 2017-Aug-20 11:31 UTC.
Position N 37°01' E 015°21'.

Length 33 m; draft 2.8 m.

Type: Sailing vessel. MMSI: 233789000.

Date/timePositionNaut miles runAvg speedWind from/ knotsBaromVisibWave heightAir tempDewpointWater temp
2017-Aug-16 16:27N 37°01' E 015°21'18 6.1
2017-Aug-16 13:31N 36°45' E 015°12'0 6.8
2017-Aug-16 13:29N 36°45' E 015°12'8 2.9
2017-Aug-16 10:41N 36°39' E 015°05'0 0.1
2017-Aug-16 10:30N 36°39' E 015°05'0 0.0
2017-Aug-16 10:00N 36°39' E 015°05'0 0.0
2017-Aug-16 09:30N 36°39' E 015°05'0 0.0
2017-Aug-16 09:00N 36°39' E 015°05'0 0.0
2017-Aug-16 08:30N 36°39' E 015°05'0 0.0
2017-Aug-16 07:58N 36°39' E 015°05'0 0.0
2017-Aug-16 07:30N 36°39' E 015°05'0 0.0
2017-Aug-16 06:59N 36°39' E 015°05'0 0.0
2017-Aug-16 06:23N 36°39' E 015°05'0 0.0
2017-Aug-16 03:43N 36°39' E 015°05'0 0.0
2017-Aug-16 03:27N 36°39' E 015°05'0 0.0
2017-Aug-16 03:00N 36°39' E 015°05'0 0.0
2017-Aug-16 02:30N 36°39' E 015°05'0 0.0
2017-Aug-16 01:58N 36°39' E 015°05'0 0.0
2017-Aug-16 01:30N 36°39' E 015°05'0 0.1
2017-Aug-16 01:00N 36°39' E 015°05'0 0.0
2017-Aug-16 00:27N 36°39' E 015°05'0 0.0
2017-Aug-16 00:00N 36°39' E 015°05'0 0.0
2017-Aug-15 23:30N 36°39' E 015°05'0 0.0
2017-Aug-15 23:00N 36°39' E 015°05'0 0.0
2017-Aug-15 22:28N 36°39' E 015°05'0 0.0
2017-Aug-15 21:59N 36°39' E 015°05'0 0.0
2017-Aug-15 21:29N 36°39' E 015°05'0 0.0
2017-Aug-15 20:43N 36°39' E 015°05'0 0.0
2017-Aug-15 20:24N 36°39' E 015°05'0 0.0
2017-Aug-15 20:00N 36°39' E 015°05'0 0.0
2017-Aug-15 18:53N 36°39' E 015°05'0 0.0
2017-Aug-15 18:29N 36°39' E 015°05'0 0.0
2017-Aug-15 17:59N 36°39' E 015°05'0 0.1
2017-Aug-15 17:30N 36°39' E 015°05'1 1.3
2017-Aug-15 16:39N 36°38' E 015°05'1 4.3
2017-Aug-15 16:27N 36°37' E 015°05'2 4.4
2017-Aug-15 15:58N 36°35' E 015°03'2 4.5
2017-Aug-15 15:30N 36°33' E 015°02'3 5.3
2017-Aug-15 14:53N 36°31' E 014°60'2 6.4
2017-Aug-15 14:30N 36°29' E 014°58'3 6.2
2017-Aug-15 13:58N 36°26' E 014°55'3 6.2
2017-Aug-15 13:28N 36°24' E 014°52'3 6.1
2017-Aug-15 12:57N 36°22' E 014°49'3 5.9
2017-Aug-15 12:27N 36°21' E 014°46'3 6.0
2017-Aug-15 12:00N 36°19' E 014°44'3 6.0
2017-Aug-15 11:30N 36°17' E 014°41'3 5.8
2017-Aug-15 11:00N 36°15' E 014°38'3 5.9
2017-Aug-15 10:30N 36°13' E 014°35'3 5.9
2017-Aug-15 10:00N 36°11' E 014°33'3 6.0
2017-Aug-15 09:30N 36°09' E 014°30'3 6.0
2017-Aug-15 09:00N 36°07' E 014°27'3 5.9
2017-Aug-15 08:30N 36°05' E 014°25'3 6.0
2017-Aug-15 08:00N 36°03' E 014°22'3 5.8
2017-Aug-15 07:30N 36°01' E 014°19'1 1.5
2017-Aug-15 07:00N 36°00' E 014°19'0 0.0
2017-Aug-15 06:30N 36°00' E 014°19'0 0.0
2017-Aug-15 06:00N 36°00' E 014°19'0 0.0
2017-Aug-15 05:30N 36°00' E 014°19'0 0.0
2017-Aug-15 05:00N 36°00' E 014°19'0 0.0
2017-Aug-15 04:30N 36°00' E 014°19'0 0.0
2017-Aug-15 04:00N 36°00' E 014°19'0 0.0
2017-Aug-15 03:30N 36°00' E 014°19'0 0.0
2017-Aug-15 03:00N 36°00' E 014°19'0 0.0
2017-Aug-15 02:30N 36°00' E 014°19'0 0.0
2017-Aug-15 02:00N 36°00' E 014°19'0 0.0
2017-Aug-15 01:30N 36°00' E 014°19'0 0.0
2017-Aug-15 01:00N 36°00' E 014°19'0 0.0
2017-Aug-15 00:30N 36°00' E 014°19'0 0.0
2017-Aug-15 00:00N 36°00' E 014°19'0 0.0
2017-Aug-14 23:30N 36°00' E 014°19'0 0.0
2017-Aug-14 23:00N 36°00' E 014°19'0 0.0
2017-Aug-14 22:30N 36°00' E 014°19'0 0.0
2017-Aug-14 22:00N 36°00' E 014°19'0 0.0
2017-Aug-14 21:30N 36°00' E 014°19'0 0.0
2017-Aug-14 21:00N 36°00' E 014°19'0 0.0
2017-Aug-14 20:30N 36°00' E 014°19'0 0.0
2017-Aug-14 20:00N 36°00' E 014°19'0 0.0
2017-Aug-14 19:30N 36°00' E 014°19'0 0.0
2017-Aug-14 19:00N 36°00' E 014°19'0 0.0
2017-Aug-14 18:30N 36°00' E 014°19'0 0.0
2017-Aug-14 18:00N 36°00' E 014°19'0 0.0
2017-Aug-14 17:30N 36°00' E 014°19'0 0.0
2017-Aug-14 17:00N 36°00' E 014°19'0 0.0
2017-Aug-14 16:30N 36°00' E 014°19'0 0.0
2017-Aug-14 16:00N 36°00' E 014°19'0 0.0
2017-Aug-14 15:30N 36°00' E 014°19'2 4.9
2017-Aug-14 15:00N 35°58' E 014°18'3 5.8
2017-Aug-14 14:30N 35°55' E 014°19'1 1.5
2017-Aug-14 13:58N 35°55' E 014°20'0 0.0
2017-Aug-14 13:28N 35°55' E 014°20'0 0.0
2017-Aug-14 13:00N 35°55' E 014°20'1 1.0
2017-Aug-14 12:30N 35°55' E 014°19'2 5.0
2017-Aug-14 12:00N 35°52' E 014°20'13 0.5
2017-Aug-13 09:41N 35°52' E 014°36'1 4.4
2017-Aug-13 09:30N 35°53' E 014°36'2 4.0
2017-Aug-13 08:58N 35°54' E 014°34'3 0.1
2017-Aug-12 05:59N 35°54' E 014°30'0 0.0
2017-Aug-12 05:29N 35°54' E 014°30'0 0.0
2017-Aug-12 04:47N 35°54' E 014°30'0 0.0
2017-Aug-12 04:29N 35°54' E 014°30'0 0.0
2017-Aug-12 03:59N 35°54' E 014°30'0 0.0
2017-Aug-11 19:05N 35°54' E 014°30'0 0.0
2017-Aug-11 18:59N 35°54' E 014°30'0 0.0
2017-Aug-11 18:29N 35°54' E 014°30'0 0.0
2017-Aug-11 17:59N 35°54' E 014°30'0 0.0
2017-Aug-11 17:23N 35°54' E 014°30'0 0.0
2017-Aug-11 16:11N 35°54' E 014°30'0 0.0
2017-Aug-11 15:59N 35°54' E 014°30'0 0.0
2017-Aug-11 13:18N 35°54' E 014°30'1 2.4
2017-Aug-11 12:59N 35°54' E 014°31'2 4.2
2017-Aug-11 12:28N 35°55' E 014°34'2 3.8
2017-Aug-11 12:00N 35°56' E 014°35'3 5.6
2017-Aug-11 11:30N 35°59' E 014°36'4 2.7
2017-Aug-11 10:09N 36°02' E 014°35'1 5.6
2017-Aug-11 10:00N 36°02' E 014°34'3 5.5
2017-Aug-11 09:30N 36°01' E 014°31'3 5.4
2017-Aug-11 09:00N 35°59' E 014°28'3 5.0
2017-Aug-11 08:30N 35°58' E 014°25'1 1.8
2017-Aug-11 07:50N 35°58' E 014°24'0 0.0
2017-Aug-11 07:29N 35°58' E 014°24'0 0.0
2017-Aug-11 06:59N 35°58' E 014°24'0 0.0
2017-Aug-11 06:23N 35°58' E 014°24'0 0.0
2017-Aug-11 05:59N 35°58' E 014°24'0 0.0
2017-Aug-11 05:17N 35°58' E 014°24'0 0.0
2017-Aug-11 04:56N 35°58' E 014°24'0 0.0
2017-Aug-11 04:29N 35°58' E 014°24'0 0.0
2017-Aug-11 03:44N 35°58' E 014°24'0 0.0
2017-Aug-11 03:14N 35°58' E 014°24'0 0.0
2017-Aug-11 02:50N 35°58' E 014°24'0 0.0
2017-Aug-11 02:26N 35°58' E 014°24'0 0.0
2017-Aug-11 01:53N 35°58' E 014°24'0 0.0
2017-Aug-11 01:29N 35°58' E 014°24'0 0.0
2017-Aug-11 00:47N 35°58' E 014°24'0 0.0
2017-Aug-11 00:29N 35°58' E 014°24'0 0.0
2017-Aug-10 23:59N 35°58' E 014°24'0 0.0
2017-Aug-10 23:11N 35°58' E 014°24'0 0.1
2017-Aug-10 22:59N 35°58' E 014°24'0 0.0
2017-Aug-10 22:05N 35°58' E 014°24'0 0.1
2017-Aug-10 21:59N 35°58' E 014°24'0 0.0
2017-Aug-10 21:29N 35°58' E 014°24'0 0.0
2017-Aug-10 20:53N 35°58' E 014°24'0 0.0
2017-Aug-10 20:26N 35°58' E 014°24'0 0.0
2017-Aug-10 19:59N 35°58' E 014°24'0 0.0
2017-Aug-10 19:26N 35°58' E 014°24'0 0.0
2017-Aug-10 18:50N 35°58' E 014°24'0 0.0
2017-Aug-10 18:11N 35°58' E 014°24'0 0.0
2017-Aug-10 17:59N 35°58' E 014°24'0 0.0
2017-Aug-10 17:29N 35°58' E 014°24'0 0.0
2017-Aug-10 16:59N 35°58' E 014°24'0 0.0
2017-Aug-10 16:29N 35°58' E 014°24'0 0.1
2017-Aug-10 16:00N 35°58' E 014°24'2 4.4
2017-Aug-10 15:30N 35°58' E 014°27'1 2.2
2017-Aug-10 15:01N 35°59' E 014°27'1 2.8
2017-Aug-10 14:31N 36°00' E 014°27'2 3.6
2017-Aug-10 14:00N 35°58' E 014°27'0 0.5
2017-Aug-10 13:30N 35°58' E 014°27'0 1.0
2017-Aug-10 13:00N 35°58' E 014°27'1 2.4
2017-Aug-10 12:30N 35°59' E 014°26'3 5.8
2017-Aug-10 12:01N 36°00' E 014°23'3 5.4
2017-Aug-10 11:30N 36°02' E 014°20'1 2.2
2017-Aug-10 10:58N 36°00' E 014°19'0 0.0
2017-Aug-10 10:28N 36°00' E 014°19'0 0.0
2017-Aug-10 09:55N 36°00' E 014°19'0 0.0
2017-Aug-10 09:25N 36°00' E 014°19'0 0.0
2017-Aug-10 08:58N 36°00' E 014°19'0 0.0
2017-Aug-10 08:28N 36°00' E 014°19'0 0.0
2017-Aug-10 07:58N 36°00' E 014°19'0 0.0
2017-Aug-10 07:28N 36°00' E 014°19'0 0.0
2017-Aug-10 06:58N 36°00' E 014°19'0 0.1
2017-Aug-10 06:30N 36°00' E 014°19'1 2.6
2017-Aug-10 06:00N 35°60' E 014°18'3 5.0
2017-Aug-10 05:30N 35°59' E 014°15'2 4.8
2017-Aug-10 05:00N 35°59' E 014°12'3 5.1
2017-Aug-10 04:30N 36°00' E 014°09'2 4.8
2017-Aug-10 04:00N 36°02' E 014°08'3 5.1
2017-Aug-10 03:30N 36°05' E 014°07'3 5.0
2017-Aug-10 03:00N 36°07' E 014°06'3 5.1
2017-Aug-10 02:30N 36°09' E 014°05'3 5.2
2017-Aug-10 02:00N 36°12' E 014°03'3 5.3
2017-Aug-10 01:30N 36°14' E 014°01'3 5.3
2017-Aug-10 01:00N 36°16' E 013°60'3 5.4
2017-Aug-10 00:30N 36°18' E 013°58'3 5.4
2017-Aug-10 00:00N 36°21' E 013°57'3 5.3
2017-Aug-09 23:30N 36°23' E 013°55'3 5.2
2017-Aug-09 23:00N 36°25' E 013°53'3 5.1
2017-Aug-09 22:30N 36°28' E 013°52'3 5.3
2017-Aug-09 22:00N 36°30' E 013°50'3 5.3
2017-Aug-09 21:30N 36°32' E 013°49'3 5.2
2017-Aug-09 21:00N 36°34' E 013°47'3 5.2
2017-Aug-09 20:30N 36°37' E 013°45'3 5.2
2017-Aug-09 20:00N 36°39' E 013°43'3 5.4
2017-Aug-09 19:30N 36°41' E 013°41'3 5.5
2017-Aug-09 19:00N 36°43' E 013°40'3 5.4
2017-Aug-09 18:30N 36°46' E 013°38'3 5.5
2017-Aug-09 18:00N 36°48' E 013°36'3 5.6
2017-Aug-09 17:30N 36°51' E 013°35'3 6.1
2017-Aug-09 17:00N 36°53' E 013°33'3 6.2
2017-Aug-09 16:30N 36°56' E 013°31'3 6.3
2017-Aug-09 16:00N 36°59' E 013°29'3 6.4
2017-Aug-09 15:30N 37°01' E 013°26'3 6.4
2017-Aug-09 15:00N 37°04' E 013°24'3 6.9
2017-Aug-09 14:30N 37°06' E 013°22'3 6.8
2017-Aug-09 14:00N 37°09' E 013°19'4 6.6
2017-Aug-09 13:21N 37°13' E 013°16'2 6.2
2017-Aug-09 12:59N 37°14' E 013°14'3 6.0
2017-Aug-09 12:30N 37°17' E 013°12'3 5.8
2017-Aug-09 11:55N 37°20' E 013°09'48 1.8
2017-Aug-08 08:51N 37°51' E 012°23'3 5.5
2017-Aug-08 08:20N 37°53' E 012°23'2 6.8
2017-Aug-08 08:00N 37°56' E 012°23'3 4.9
2017-Aug-08 07:26N 37°56' E 012°19'0 0.2
2017-Aug-08 07:00N 37°56' E 012°19'0 0.0
2017-Aug-08 06:30N 37°56' E 012°19'0 0.0
2017-Aug-08 05:47N 37°56' E 012°19'0 0.0
2017-Aug-08 05:30N 37°56' E 012°19'0 0.0
2017-Aug-08 05:00N 37°56' E 012°19'0 0.0
2017-Aug-08 04:30N 37°56' E 012°19'0 0.0
2017-Aug-08 04:00N 37°56' E 012°19'0 0.0
2017-Aug-08 03:25N 37°56' E 012°19'0 0.0
2017-Aug-08 03:00N 37°56' E 012°19'0 0.0
2017-Aug-08 02:29N 37°56' E 012°19'0 0.0
2017-Aug-08 01:59N 37°56' E 012°19'0 0.0
2017-Aug-08 01:30N 37°56' E 012°19'0 0.0
2017-Aug-08 00:52N 37°56' E 012°19'0 0.0
2017-Aug-08 00:27N 37°56' E 012°19'0 0.0
2017-Aug-07 23:56N 37°56' E 012°19'0 0.0
2017-Aug-07 23:23N 37°56' E 012°19'0 0.0
2017-Aug-07 22:59N 37°56' E 012°19'0 0.0
2017-Aug-07 22:11N 37°56' E 012°19'0 0.0
2017-Aug-07 21:33N 37°56' E 012°19'0 0.0
2017-Aug-07 20:45N 37°56' E 012°19'0 0.0
2017-Aug-07 20:24N 37°56' E 012°19'0 0.0
2017-Aug-07 20:00N 37°56' E 012°19'0 0.7
2017-Aug-07 19:30N 37°56' E 012°20'2 3.9
2017-Aug-07 19:00N 37°58' E 012°19'4 5.6
2017-Aug-07 18:20N 37°60' E 012°15'2 5.8
2017-Aug-07 18:01N 38°01' E 012°12'3 5.7
2017-Aug-07 17:29N 38°01' E 012°09'3 6.0
2017-Aug-07 16:55N 38°02' E 012°05'2 5.7
2017-Aug-07 16:30N 38°03' E 012°02'3 5.9
2017-Aug-07 16:00N 38°05' E 011°59'3 6.1
2017-Aug-07 15:30N 38°06' E 011°55'3 6.3
2017-Aug-07 15:00N 38°07' E 011°51'5 3.1
2017-Aug-07 13:22N 38°09' E 011°45'17 5.8
2017-Aug-07 10:23N 38°17' E 011°26'2 5.4
2017-Aug-07 09:56N 38°18' E 011°23'2 5.6
2017-Aug-07 09:30N 38°19' E 011°20'3 5.8
2017-Aug-07 08:56N 38°21' E 011°16'13 5.7
2017-Aug-07 06:44N 38°26' E 011°02'52 6.1
2017-Aug-06 22:12N 38°50' E 010°02'2 6.3
2017-Aug-06 21:53N 38°50' E 009°60'14 6.3
2017-Aug-06 19:41N 38°57' E 009°44'4 2.8
2017-Aug-06 18:06N 38°59' E 009°39'0 2.3
2017-Aug-06 17:59N 38°59' E 009°38'2 2.7
2017-Aug-06 17:23N 38°59' E 009°36'1 2.4
2017-Aug-06 16:59N 38°60' E 009°35'1 2.2
2017-Aug-06 16:29N 39°00' E 009°34'  
Track history (hours):
 
Tides and Currents Weather Stations Pressure Air Temp Water Temp Dewpoint Dewpoint Depression Visibility Wind Speed Wind Dir Waves Ship Positions

Eye Of The Wind

Last reported at 2017-Aug-16 16:27 UTC. Time now 2017-Aug-20 11:31 UTC.
Position N 37°01' E 015°21'.

Length 33 m; draft 2.8 m.

Type: Sailing vessel. MMSI: 233789000.

Date/timePositionNaut miles runAvg speedWind from/ knotsBaromVisibWave heightAir tempDewpointWater temp
2017-Aug-16 16:27N 37°01' E 015°21'18 6.1
2017-Aug-16 13:31N 36°45' E 015°12'0 6.8
2017-Aug-16 13:29N 36°45' E 015°12'8 2.9
2017-Aug-16 10:41N 36°39' E 015°05'0 0.1
2017-Aug-16 10:30N 36°39' E 015°05'0 0.0
2017-Aug-16 10:00N 36°39' E 015°05'0 0.0
2017-Aug-16 09:30N 36°39' E 015°05'0 0.0
2017-Aug-16 09:00N 36°39' E 015°05'0 0.0
2017-Aug-16 08:30N 36°39' E 015°05'0 0.0
2017-Aug-16 07:58N 36°39' E 015°05'0 0.0
2017-Aug-16 07:30N 36°39' E 015°05'0 0.0
2017-Aug-16 06:59N 36°39' E 015°05'0 0.0
2017-Aug-16 06:23N 36°39' E 015°05'0 0.0
2017-Aug-16 03:43N 36°39' E 015°05'0 0.0
2017-Aug-16 03:27N 36°39' E 015°05'0 0.0
2017-Aug-16 03:00N 36°39' E 015°05'0 0.0
2017-Aug-16 02:30N 36°39' E 015°05'0 0.0
2017-Aug-16 01:58N 36°39' E 015°05'0 0.0
2017-Aug-16 01:30N 36°39' E 015°05'0 0.1
2017-Aug-16 01:00N 36°39' E 015°05'0 0.0
2017-Aug-16 00:27N 36°39' E 015°05'0 0.0
2017-Aug-16 00:00N 36°39' E 015°05'0 0.0
2017-Aug-15 23:30N 36°39' E 015°05'0 0.0
2017-Aug-15 23:00N 36°39' E 015°05'0 0.0
2017-Aug-15 22:28N 36°39' E 015°05'0 0.0
2017-Aug-15 21:59N 36°39' E 015°05'0 0.0
2017-Aug-15 21:29N 36°39' E 015°05'0 0.0
2017-Aug-15 20:43N 36°39' E 015°05'0 0.0
2017-Aug-15 20:24N 36°39' E 015°05'0 0.0
2017-Aug-15 20:00N 36°39' E 015°05'0 0.0
2017-Aug-15 18:53N 36°39' E 015°05'0 0.0
2017-Aug-15 18:29N 36°39' E 015°05'0 0.0
2017-Aug-15 17:59N 36°39' E 015°05'0 0.1
2017-Aug-15 17:30N 36°39' E 015°05'1 1.3
2017-Aug-15 16:39N 36°38' E 015°05'1 4.3
2017-Aug-15 16:27N 36°37' E 015°05'2 4.4
2017-Aug-15 15:58N 36°35' E 015°03'2 4.5
2017-Aug-15 15:30N 36°33' E 015°02'3 5.3
2017-Aug-15 14:53N 36°31' E 014°60'2 6.4
2017-Aug-15 14:30N 36°29' E 014°58'3 6.2
2017-Aug-15 13:58N 36°26' E 014°55'3 6.2
2017-Aug-15 13:28N 36°24' E 014°52'3 6.1
2017-Aug-15 12:57N 36°22' E 014°49'3 5.9
2017-Aug-15 12:27N 36°21' E 014°46'3 6.0
2017-Aug-15 12:00N 36°19' E 014°44'3 6.0
2017-Aug-15 11:30N 36°17' E 014°41'3 5.8
2017-Aug-15 11:00N 36°15' E 014°38'3 5.9
2017-Aug-15 10:30N 36°13' E 014°35'3 5.9
2017-Aug-15 10:00N 36°11' E 014°33'3 6.0
2017-Aug-15 09:30N 36°09' E 014°30'3 6.0
2017-Aug-15 09:00N 36°07' E 014°27'3 5.9
2017-Aug-15 08:30N 36°05' E 014°25'3 6.0
2017-Aug-15 08:00N 36°03' E 014°22'3 5.8
2017-Aug-15 07:30N 36°01' E 014°19'1 1.5
2017-Aug-15 07:00N 36°00' E 014°19'0 0.0
2017-Aug-15 06:30N 36°00' E 014°19'0 0.0
2017-Aug-15 06:00N 36°00' E 014°19'0 0.0
2017-Aug-15 05:30N 36°00' E 014°19'0 0.0
2017-Aug-15 05:00N 36°00' E 014°19'0 0.0
2017-Aug-15 04:30N 36°00' E 014°19'0 0.0
2017-Aug-15 04:00N 36°00' E 014°19'0 0.0
2017-Aug-15 03:30N 36°00' E 014°19'0 0.0
2017-Aug-15 03:00N 36°00' E 014°19'0 0.0
2017-Aug-15 02:30N 36°00' E 014°19'0 0.0
2017-Aug-15 02:00N 36°00' E 014°19'0 0.0
2017-Aug-15 01:30N 36°00' E 014°19'0 0.0
2017-Aug-15 01:00N 36°00' E 014°19'0 0.0
2017-Aug-15 00:30N 36°00' E 014°19'0 0.0
2017-Aug-15 00:00N 36°00' E 014°19'0 0.0
2017-Aug-14 23:30N 36°00' E 014°19'0 0.0
2017-Aug-14 23:00N 36°00' E 014°19'0 0.0
2017-Aug-14 22:30N 36°00' E 014°19'0 0.0
2017-Aug-14 22:00N 36°00' E 014°19'0 0.0
2017-Aug-14 21:30N 36°00' E 014°19'0 0.0
2017-Aug-14 21:00N 36°00' E 014°19'0 0.0
2017-Aug-14 20:30N 36°00' E 014°19'0 0.0
2017-Aug-14 20:00N 36°00' E 014°19'0 0.0
2017-Aug-14 19:30N 36°00' E 014°19'0 0.0
2017-Aug-14 19:00N 36°00' E 014°19'0 0.0
2017-Aug-14 18:30N 36°00' E 014°19'0 0.0
2017-Aug-14 18:00N 36°00' E 014°19'0 0.0
2017-Aug-14 17:30N 36°00' E 014°19'0 0.0
2017-Aug-14 17:00N 36°00' E 014°19'0 0.0
2017-Aug-14 16:30N 36°00' E 014°19'0 0.0
2017-Aug-14 16:00N 36°00' E 014°19'0 0.0
2017-Aug-14 15:30N 36°00' E 014°19'2 4.9
2017-Aug-14 15:00N 35°58' E 014°18'3 5.8
2017-Aug-14 14:30N 35°55' E 014°19'1 1.5
2017-Aug-14 13:58N 35°55' E 014°20'0 0.0
2017-Aug-14 13:28N 35°55' E 014°20'0 0.0
2017-Aug-14 13:00N 35°55' E 014°20'1 1.0
2017-Aug-14 12:30N 35°55' E 014°19'2 5.0
2017-Aug-14 12:00N 35°52' E 014°20'13 0.5
2017-Aug-13 09:41N 35°52' E 014°36'1 4.4
2017-Aug-13 09:30N 35°53' E 014°36'2 4.0
2017-Aug-13 08:58N 35°54' E 014°34'3 0.1
2017-Aug-12 05:59N 35°54' E 014°30'0 0.0
2017-Aug-12 05:29N 35°54' E 014°30'0 0.0
2017-Aug-12 04:47N 35°54' E 014°30'0 0.0
2017-Aug-12 04:29N 35°54' E 014°30'0 0.0
2017-Aug-12 03:59N 35°54' E 014°30'0 0.0
2017-Aug-11 19:05N 35°54' E 014°30'0 0.0
2017-Aug-11 18:59N 35°54' E 014°30'0 0.0
2017-Aug-11 18:29N 35°54' E 014°30'0 0.0
2017-Aug-11 17:59N 35°54' E 014°30'0 0.0
2017-Aug-11 17:23N 35°54' E 014°30'0 0.0
2017-Aug-11 16:11N 35°54' E 014°30'0 0.0
2017-Aug-11 15:59N 35°54' E 014°30'0 0.0
2017-Aug-11 13:18N 35°54' E 014°30'1 2.4
2017-Aug-11 12:59N 35°54' E 014°31'2 4.2
2017-Aug-11 12:28N 35°55' E 014°34'2 3.8
2017-Aug-11 12:00N 35°56' E 014°35'3 5.6
2017-Aug-11 11:30N 35°59' E 014°36'4 2.7
2017-Aug-11 10:09N 36°02' E 014°35'1 5.6
2017-Aug-11 10:00N 36°02' E 014°34'3 5.5
2017-Aug-11 09:30N 36°01' E 014°31'3 5.4
2017-Aug-11 09:00N 35°59' E 014°28'3 5.0
2017-Aug-11 08:30N 35°58' E 014°25'1 1.8
2017-Aug-11 07:50N 35°58' E 014°24'0 0.0
2017-Aug-11 07:29N 35°58' E 014°24'0 0.0
2017-Aug-11 06:59N 35°58' E 014°24'0 0.0
2017-Aug-11 06:23N 35°58' E 014°24'0 0.0
2017-Aug-11 05:59N 35°58' E 014°24'0 0.0
2017-Aug-11 05:17N 35°58' E 014°24'0 0.0
2017-Aug-11 04:56N 35°58' E 014°24'0 0.0
2017-Aug-11 04:29N 35°58' E 014°24'0 0.0
2017-Aug-11 03:44N 35°58' E 014°24'0 0.0
2017-Aug-11 03:14N 35°58' E 014°24'0 0.0
2017-Aug-11 02:50N 35°58' E 014°24'0 0.0
2017-Aug-11 02:26N 35°58' E 014°24'0 0.0
2017-Aug-11 01:53N 35°58' E 014°24'0 0.0
2017-Aug-11 01:29N 35°58' E 014°24'0 0.0
2017-Aug-11 00:47N 35°58' E 014°24'0 0.0
2017-Aug-11 00:29N 35°58' E 014°24'0 0.0
2017-Aug-10 23:59N 35°58' E 014°24'0 0.0
2017-Aug-10 23:11N 35°58' E 014°24'0 0.1
2017-Aug-10 22:59N 35°58' E 014°24'0 0.0
2017-Aug-10 22:05N 35°58' E 014°24'0 0.1
2017-Aug-10 21:59N 35°58' E 014°24'0 0.0
2017-Aug-10 21:29N 35°58' E 014°24'0 0.0
2017-Aug-10 20:53N 35°58' E 014°24'0 0.0
2017-Aug-10 20:26N 35°58' E 014°24'0 0.0
2017-Aug-10 19:59N 35°58' E 014°24'0 0.0
2017-Aug-10 19:26N 35°58' E 014°24'0 0.0
2017-Aug-10 18:50N 35°58' E 014°24'0 0.0
2017-Aug-10 18:11N 35°58' E 014°24'0 0.0
2017-Aug-10 17:59N 35°58' E 014°24'0 0.0
2017-Aug-10 17:29N 35°58' E 014°24'0 0.0
2017-Aug-10 16:59N 35°58' E 014°24'0 0.0
2017-Aug-10 16:29N 35°58' E 014°24'0 0.1
2017-Aug-10 16:00N 35°58' E 014°24'2 4.4
2017-Aug-10 15:30N 35°58' E 014°27'1 2.2
2017-Aug-10 15:01N 35°59' E 014°27'1 2.8
2017-Aug-10 14:31N 36°00' E 014°27'2 3.6
2017-Aug-10 14:00N 35°58' E 014°27'0 0.5
2017-Aug-10 13:30N 35°58' E 014°27'0 1.0
2017-Aug-10 13:00N 35°58' E 014°27'1 2.4
2017-Aug-10 12:30N 35°59' E 014°26'3 5.8
2017-Aug-10 12:01N 36°00' E 014°23'3 5.4
2017-Aug-10 11:30N 36°02' E 014°20'1 2.2
2017-Aug-10 10:58N 36°00' E 014°19'0 0.0
2017-Aug-10 10:28N 36°00' E 014°19'0 0.0
2017-Aug-10 09:55N 36°00' E 014°19'0 0.0
2017-Aug-10 09:25N 36°00' E 014°19'0 0.0
2017-Aug-10 08:58N 36°00' E 014°19'0 0.0
2017-Aug-10 08:28N 36°00' E 014°19'0 0.0
2017-Aug-10 07:58N 36°00' E 014°19'0 0.0
2017-Aug-10 07:28N 36°00' E 014°19'0 0.0
2017-Aug-10 06:58N 36°00' E 014°19'0 0.1
2017-Aug-10 06:30N 36°00' E 014°19'1 2.6
2017-Aug-10 06:00N 35°60' E 014°18'3 5.0
2017-Aug-10 05:30N 35°59' E 014°15'2 4.8
2017-Aug-10 05:00N 35°59' E 014°12'3 5.1
2017-Aug-10 04:30N 36°00' E 014°09'2 4.8
2017-Aug-10 04:00N 36°02' E 014°08'3 5.1
2017-Aug-10 03:30N 36°05' E 014°07'3 5.0
2017-Aug-10 03:00N 36°07' E 014°06'3 5.1
2017-Aug-10 02:30N 36°09' E 014°05'3 5.2
2017-Aug-10 02:00N 36°12' E 014°03'3 5.3
2017-Aug-10 01:30N 36°14' E 014°01'3 5.3
2017-Aug-10 01:00N 36°16' E 013°60'3 5.4
2017-Aug-10 00:30N 36°18' E 013°58'3 5.4
2017-Aug-10 00:00N 36°21' E 013°57'3 5.3
2017-Aug-09 23:30N 36°23' E 013°55'3 5.2
2017-Aug-09 23:00N 36°25' E 013°53'3 5.1
2017-Aug-09 22:30N 36°28' E 013°52'3 5.3
2017-Aug-09 22:00N 36°30' E 013°50'3 5.3
2017-Aug-09 21:30N 36°32' E 013°49'3 5.2
2017-Aug-09 21:00N 36°34' E 013°47'3 5.2
2017-Aug-09 20:30N 36°37' E 013°45'3 5.2
2017-Aug-09 20:00N 36°39' E 013°43'3 5.4
2017-Aug-09 19:30N 36°41' E 013°41'3 5.5
2017-Aug-09 19:00N 36°43' E 013°40'3 5.4
2017-Aug-09 18:30N 36°46' E 013°38'3 5.5
2017-Aug-09 18:00N 36°48' E 013°36'3 5.6
2017-Aug-09 17:30N 36°51' E 013°35'3 6.1
2017-Aug-09 17:00N 36°53' E 013°33'3 6.2
2017-Aug-09 16:30N 36°56' E 013°31'3 6.3
2017-Aug-09 16:00N 36°59' E 013°29'3 6.4
2017-Aug-09 15:30N 37°01' E 013°26'3 6.4
2017-Aug-09 15:00N 37°04' E 013°24'3 6.9
2017-Aug-09 14:30N 37°06' E 013°22'3 6.8
2017-Aug-09 14:00N 37°09' E 013°19'4 6.6
2017-Aug-09 13:21N 37°13' E 013°16'2 6.2
2017-Aug-09 12:59N 37°14' E 013°14'3 6.0
2017-Aug-09 12:30N 37°17' E 013°12'3 5.8
2017-Aug-09 11:55N 37°20' E 013°09'48 1.8
2017-Aug-08 08:51N 37°51' E 012°23'3 5.5
2017-Aug-08 08:20N 37°53' E 012°23'2 6.8
2017-Aug-08 08:00N 37°56' E 012°23'3 4.9
2017-Aug-08 07:26N 37°56' E 012°19'0 0.2
2017-Aug-08 07:00N 37°56' E 012°19'0 0.0
2017-Aug-08 06:30N 37°56' E 012°19'0 0.0
2017-Aug-08 05:47N 37°56' E 012°19'0 0.0
2017-Aug-08 05:30N 37°56' E 012°19'0 0.0
2017-Aug-08 05:00N 37°56' E 012°19'0 0.0
2017-Aug-08 04:30N 37°56' E 012°19'0 0.0
2017-Aug-08 04:00N 37°56' E 012°19'0 0.0
2017-Aug-08 03:25N 37°56' E 012°19'0 0.0
2017-Aug-08 03:00N 37°56' E 012°19'0 0.0
2017-Aug-08 02:29N 37°56' E 012°19'0 0.0
2017-Aug-08 01:59N 37°56' E 012°19'0 0.0
2017-Aug-08 01:30N 37°56' E 012°19'0 0.0
2017-Aug-08 00:52N 37°56' E 012°19'0 0.0
2017-Aug-08 00:27N 37°56' E 012°19'0 0.0
2017-Aug-07 23:56N 37°56' E 012°19'0 0.0
2017-Aug-07 23:23N 37°56' E 012°19'0 0.0
2017-Aug-07 22:59N 37°56' E 012°19'0 0.0
2017-Aug-07 22:11N 37°56' E 012°19'0 0.0
2017-Aug-07 21:33N 37°56' E 012°19'0 0.0
2017-Aug-07 20:45N 37°56' E 012°19'0 0.0
2017-Aug-07 20:24N 37°56' E 012°19'0 0.0
2017-Aug-07 20:00N 37°56' E 012°19'0 0.7
2017-Aug-07 19:30N 37°56' E 012°20'2 3.9
2017-Aug-07 19:00N 37°58' E 012°19'4 5.6
2017-Aug-07 18:20N 37°60' E 012°15'2 5.8
2017-Aug-07 18:01N 38°01' E 012°12'3 5.7
2017-Aug-07 17:29N 38°01' E 012°09'3 6.0
2017-Aug-07 16:55N 38°02' E 012°05'2 5.7
2017-Aug-07 16:30N 38°03' E 012°02'3 5.9
2017-Aug-07 16:00N 38°05' E 011°59'3 6.1
2017-Aug-07 15:30N 38°06' E 011°55'3 6.3
2017-Aug-07 15:00N 38°07' E 011°51'5 3.1
2017-Aug-07 13:22N 38°09' E 011°45'17 5.8
2017-Aug-07 10:23N 38°17' E 011°26'2 5.4
2017-Aug-07 09:56N 38°18' E 011°23'2 5.6
2017-Aug-07 09:30N 38°19' E 011°20'3 5.8
2017-Aug-07 08:56N 38°21' E 011°16'13 5.7
2017-Aug-07 06:44N 38°26' E 011°02'52 6.1
2017-Aug-06 22:12N 38°50' E 010°02'2 6.3
2017-Aug-06 21:53N 38°50' E 009°60'14 6.3
2017-Aug-06 19:41N 38°57' E 009°44'4 2.8
2017-Aug-06 18:06N 38°59' E 009°39'0 2.3
2017-Aug-06 17:59N 38°59' E 009°38'2 2.7
2017-Aug-06 17:23N 38°59' E 009°36'1 2.4
2017-Aug-06 16:59N 38°60' E 009°35'1 2.2
2017-Aug-06 16:29N 39°00' E 009°34'  

Dump ship's entire track history